createdAt,value
2023-05-13T00:03:41.724Z,2.20
2023-05-13T00:08:42.063Z,1.85
2023-05-13T00:13:40.752Z,1.70
2023-05-13T00:18:39.488Z,1.75
2023-05-13T00:23:38.170Z,1.60
2023-05-13T00:28:38.257Z,2.13
2023-05-13T00:33:37.736Z,2.28
2023-05-13T00:38:36.695Z,1.85
2023-05-13T00:43:35.438Z,2.22
2023-05-13T00:48:35.659Z,2.40
2023-05-13T00:53:35.463Z,2.17
2023-05-13T00:58:34.186Z,2.17
2023-05-13T01:03:54.815Z,2.40
2023-05-13T01:08:59.523Z,2.67
2023-05-13T01:14:04.032Z,2.63
2023-05-13T01:19:14.229Z,2.67
2023-05-13T01:24:14.467Z,2.60
2023-05-13T01:29:13.668Z,3.33
2023-05-13T01:34:16.171Z,3.10
2023-05-13T01:39:18.471Z,2.92
2023-05-13T01:44:18.248Z,2.80
2023-05-13T01:49:17.236Z,2.75
2023-05-13T01:54:18.945Z,2.85
2023-05-13T01:59:23.458Z,2.72
2023-05-13T02:04:22.454Z,3.58
2023-05-13T02:09:22.773Z,3.13
2023-05-13T02:14:21.694Z,2.90
2023-05-13T02:19:20.877Z,2.72
2023-05-13T02:24:20.627Z,2.17
2023-05-13T02:29:20.858Z,2.50
2023-05-13T02:34:19.591Z,2.85
2023-05-13T02:39:18.351Z,2.90
2023-05-13T02:44:17.132Z,2.50
2023-05-13T02:49:18.274Z,2.63
2023-05-13T02:54:17.076Z,2.65
2023-05-13T02:59:15.832Z,2.67
2023-05-13T03:04:14.634Z,2.35
2023-05-13T03:09:14.708Z,2.38
2023-05-13T03:14:13.352Z,2.95
2023-05-13T03:19:12.157Z,3.85
2023-05-13T03:24:11.346Z,2.60
2023-05-13T03:29:11.672Z,4.38
2023-05-13T03:34:11.215Z,3.30
2023-05-13T03:39:10.577Z,3.15
2023-05-13T03:44:11.877Z,3.80
2023-05-13T03:49:10.649Z,4.55
2023-05-13T03:54:09.444Z,3.40
2023-05-13T03:59:08.375Z,4.00
2023-05-13T04:04:09.683Z,3.95
2023-05-13T04:09:08.581Z,4.55
2023-05-13T04:14:07.420Z,3.60
2023-05-13T04:19:06.284Z,3.92
2023-05-13T04:24:07.260Z,3.13
2023-05-13T04:29:06.061Z,3.70
2023-05-13T04:34:05.080Z,3.65
2023-05-13T04:39:06.193Z,5.07
2023-05-13T04:44:06.335Z,4.60
2023-05-13T04:49:05.937Z,4.70
2023-05-13T04:54:06.616Z,4.57
2023-05-13T04:59:05.917Z,4.78
2023-05-13T05:04:05.166Z,4.05
2023-05-13T05:09:06.537Z,4.25
2023-05-13T05:14:05.462Z,3.97
2023-05-13T05:19:04.393Z,5.00
2023-05-13T05:24:03.876Z,3.30
2023-05-13T05:29:04.624Z,3.25
2023-05-13T05:34:03.546Z,3.67
2023-05-13T05:39:02.301Z,3.38
2023-05-13T05:44:07.361Z,3.75
2023-05-13T05:49:08.293Z,3.17
2023-05-13T05:54:08.346Z,3.50
2023-05-13T05:59:08.666Z,3.60
2023-05-13T06:04:08.067Z,3.75
2023-05-13T06:09:06.977Z,3.67
2023-05-13T06:14:06.072Z,3.28
2023-05-13T06:19:06.206Z,3.30
2023-05-13T06:24:05.391Z,3.20
2023-05-13T06:29:04.608Z,3.05
2023-05-13T06:34:07.445Z,3.37
2023-05-13T06:39:06.474Z,3.03
2023-05-13T06:44:07.526Z,4.35
2023-05-13T06:49:12.069Z,2.60
2023-05-13T06:54:10.863Z,2.45
2023-05-13T06:59:09.770Z,2.97
2023-05-13T07:04:11.067Z,2.55
2023-05-13T07:09:11.600Z,3.00
2023-05-13T07:14:10.893Z,1.38
2023-05-13T07:19:12.273Z,1.00
2023-05-13T07:24:12.735Z,1.97
2023-05-13T07:29:12.849Z,1.55
2023-05-13T07:34:11.685Z,5.07
2023-05-13T07:39:10.579Z,2.83
2023-05-13T07:44:13.316Z,2.17
2023-05-13T07:49:12.239Z,1.45
2023-05-13T07:54:11.421Z,1.15
2023-05-13T07:59:11.611Z,1.45
2023-05-13T08:04:10.491Z,1.25
2023-05-13T08:09:12.352Z,2.72
2023-05-13T08:14:12.538Z,1.70
2023-05-13T08:19:12.615Z,1.77
2023-05-13T08:24:11.492Z,1.52
2023-05-13T08:29:18.259Z,1.80
2023-05-13T08:34:19.374Z,1.35
2023-05-13T08:39:18.129Z,0.98
2023-05-13T08:44:20.092Z,2.05
2023-05-13T08:49:19.104Z,1.98
2023-05-13T08:54:18.969Z,1.90
2023-05-13T08:59:20.253Z,1.38
2023-05-13T09:04:21.417Z,1.57
2023-05-13T09:09:24.046Z,1.50
2023-05-13T09:14:33.077Z,1.27
2023-05-13T09:19:31.943Z,1.80
2023-05-13T09:24:30.833Z,1.13
2023-05-13T09:29:30.943Z,1.60
2023-05-13T09:34:31.749Z,1.80
2023-05-13T09:39:33.639Z,1.80
2023-05-13T09:44:35.266Z,2.28
2023-05-13T09:49:33.975Z,0.87
2023-05-13T09:54:36.819Z,2.05
2023-05-13T09:59:37.268Z,1.55
2023-05-13T10:04:36.132Z,1.65
2023-05-13T10:09:37.662Z,2.05
2023-05-13T10:14:38.460Z,1.23
2023-05-13T10:19:38.246Z,3.50
2023-05-13T10:24:38.985Z,1.83
2023-05-13T10:29:40.743Z,1.20
2023-05-13T10:34:41.257Z,1.48
2023-05-13T10:39:58.683Z,0.90
2023-05-13T10:44:59.664Z,1.20
2023-05-13T10:49:58.622Z,1.42
2023-05-13T10:55:03.994Z,1.30
2023-05-13T11:00:17.545Z,1.02
2023-05-13T11:05:21.257Z,1.23
2023-05-13T11:10:27.572Z,1.10
2023-05-13T11:15:44.804Z,1.10
2023-05-13T11:20:55.017Z,1.35
2023-05-13T11:26:12.699Z,1.17
2023-05-13T11:31:18.298Z,1.33
2023-05-13T11:36:17.017Z,1.25
2023-05-13T11:41:15.718Z,1.50
2023-05-13T11:46:22.626Z,1.50
2023-05-13T11:51:23.912Z,1.40
2023-05-13T12:01:27.778Z,1.65
2023-05-13T12:06:26.971Z,1.60
2023-05-13T12:11:25.884Z,1.70
2023-05-13T12:16:27.268Z,1.88
2023-05-13T12:21:26.071Z,1.40
2023-05-13T12:26:24.858Z,1.63
2023-05-13T12:31:24.132Z,1.30
2023-05-13T12:36:33.706Z,2.08
2023-05-13T12:41:34.969Z,1.80
2023-05-13T12:51:35.025Z,1.50
2023-05-13T12:56:33.765Z,1.65
2023-05-13T13:01:32.710Z,1.08
2023-05-13T13:06:31.511Z,1.30
2023-05-13T13:11:31.578Z,1.48
2023-05-13T13:16:30.626Z,1.40
2023-05-13T13:21:32.524Z,1.70
2023-05-13T13:26:33.039Z,1.30
2023-05-13T13:31:32.022Z,1.42
2023-05-13T13:36:31.803Z,1.65
2023-05-13T13:41:30.477Z,1.10
2023-05-13T13:46:30.603Z,1.40
2023-05-13T13:51:29.295Z,1.77
2023-05-13T13:56:28.042Z,1.50
2023-05-13T14:01:26.932Z,1.50
2023-05-13T14:06:27.994Z,1.35
2023-05-13T14:11:26.703Z,1.60
2023-05-13T14:16:25.675Z,1.45
2023-05-13T14:21:24.418Z,1.73
2023-05-13T14:26:24.847Z,1.42
2023-05-13T14:31:23.786Z,1.25
2023-05-13T14:36:23.072Z,1.87
2023-05-13T14:41:22.792Z,2.08
2023-05-13T14:56:19.794Z,2.40
2023-05-13T15:01:18.652Z,1.98
2023-05-13T15:06:18.949Z,2.17
2023-05-13T15:11:17.605Z,1.92
2023-05-13T15:16:16.412Z,1.70
2023-05-13T15:21:15.154Z,1.60
2023-05-13T15:26:15.505Z,1.67
2023-05-13T15:31:14.503Z,2.83
2023-05-13T15:36:13.773Z,1.83
2023-05-13T15:41:16.291Z,2.63
2023-05-13T15:46:17.642Z,2.42
2023-05-13T15:51:16.563Z,1.92
2023-05-13T15:56:18.569Z,1.92
2023-05-13T16:01:17.312Z,2.70
2023-05-13T16:06:16.241Z,2.10
2023-05-13T16:11:16.454Z,2.30
2023-05-13T16:16:17.934Z,2.13
2023-05-13T16:21:16.678Z,2.13
2023-05-13T16:26:16.886Z,2.30
2023-05-13T16:31:15.785Z,1.88
2023-05-13T16:36:14.655Z,2.00
2023-05-13T16:41:13.686Z,2.67
2023-05-13T16:46:15.263Z,1.30
2023-05-13T16:51:14.238Z,2.38
2023-05-13T16:56:13.062Z,2.08
2023-05-13T17:01:13.519Z,1.95
2023-05-13T17:06:12.658Z,1.70
2023-05-13T17:11:16.237Z,1.52
2023-05-13T17:16:17.548Z,3.25
2023-05-13T17:21:16.292Z,1.70
2023-05-13T17:26:18.556Z,2.27
2023-05-13T17:31:18.962Z,2.25
2023-05-13T17:36:17.782Z,2.00
2023-05-13T17:41:17.003Z,1.77
2023-05-13T17:46:15.797Z,2.00
2023-05-13T17:51:15.881Z,1.80
2023-05-13T17:56:14.773Z,2.03
2023-05-13T18:01:13.465Z,2.05
2023-05-13T18:06:12.331Z,1.65
2023-05-13T18:11:12.676Z,2.03
2023-05-13T18:16:12.190Z,1.80
2023-05-13T18:21:11.149Z,2.00
2023-05-13T18:26:09.938Z,1.98
2023-05-13T18:31:10.329Z,2.58
2023-05-13T18:36:10.335Z,1.88
2023-05-13T18:41:09.419Z,2.50
2023-05-13T18:46:09.967Z,2.10
2023-05-13T18:51:08.869Z,2.05
2023-05-13T18:56:07.917Z,2.67
2023-05-13T19:01:06.916Z,2.33
2023-05-13T19:06:07.250Z,3.45
2023-05-13T19:11:06.564Z,2.97
2023-05-13T19:16:05.795Z,3.17
2023-05-13T19:21:06.153Z,3.13
2023-05-13T19:26:05.008Z,2.67
2023-05-13T19:31:04.557Z,2.33
2023-05-13T19:36:03.426Z,2.72
2023-05-13T19:41:03.589Z,2.60
2023-05-13T19:46:02.406Z,2.75
2023-05-13T19:51:01.311Z,2.97
2023-05-13T19:56:00.204Z,3.00
2023-05-13T20:01:01.125Z,2.50
2023-05-13T20:05:59.814Z,2.40
2023-05-13T20:10:58.635Z,2.47
2023-05-13T20:15:57.419Z,2.80
2023-05-13T20:20:57.928Z,3.10
2023-05-13T20:25:57.459Z,3.22
2023-05-13T20:30:56.925Z,2.63
2023-05-13T20:35:57.329Z,2.60
2023-05-13T20:40:56.421Z,2.60
2023-05-13T20:45:55.331Z,3.58
2023-05-13T20:51:03.681Z,3.33
2023-05-13T20:56:04.987Z,3.70
2023-05-13T21:01:04.073Z,2.97
2023-05-13T21:06:04.453Z,2.65
2023-05-13T21:11:03.302Z,2.92
2023-05-13T21:16:05.033Z,2.72
2023-05-13T21:21:08.708Z,2.58
2023-05-13T21:26:07.755Z,2.50
2023-05-13T21:31:06.973Z,2.63
2023-05-13T21:36:07.497Z,6.13
2023-05-13T21:41:06.310Z,3.85
2023-05-13T21:46:06.637Z,3.50
2023-05-13T21:51:06.958Z,3.35
2023-05-13T21:56:06.137Z,3.88
2023-05-13T22:01:04.944Z,2.58
2023-05-13T22:06:03.870Z,2.97
2023-05-13T22:11:04.018Z,3.20
2023-05-13T22:16:02.969Z,4.40
2023-05-13T22:21:01.882Z,2.90
2023-05-13T22:26:00.695Z,3.42
2023-05-13T22:31:00.844Z,2.90
2023-05-13T22:35:59.582Z,2.97
2023-05-13T22:40:58.313Z,3.35
2023-05-13T22:45:57.050Z,3.35
2023-05-13T22:50:58.487Z,4.18
2023-05-13T22:55:57.259Z,3.30
2023-05-13T23:00:56.045Z,3.83
2023-05-13T23:05:58.058Z,3.13
2023-05-13T23:10:57.139Z,4.10
2023-05-13T23:15:55.925Z,3.60
2023-05-13T23:20:55.809Z,3.22
2023-05-13T23:25:57.472Z,3.13
2023-05-13T23:30:56.260Z,3.55
2023-05-13T23:35:55.337Z,3.40
2023-05-13T23:40:55.475Z,3.03
2023-05-13T23:45:54.203Z,4.10
2023-05-13T23:50:53.043Z,3.25
2023-05-13T23:55:51.805Z,3.47
